sensor_id;sensor_type;location;lat;lon;timestamp;P1;durP1;ratioP1;P2;durP2;ratioP2
58874;SDS011;44652;49.040;12.126;2023-02-28T06:07:34;12.90;;;8.10;;
58874;SDS011;44652;49.040;12.126;2023-02-28T06:10:00;13.38;;;7.78;;
58874;SDS011;44652;49.040;12.126;2023-02-28T06:12:27;15.00;;;7.78;;
58874;SDS011;44652;49.040;12.126;2023-02-28T06:14:53;14.15;;;8.38;;
58874;SDS011;44652;49.040;12.126;2023-02-28T06:17:20;12.45;;;7.65;;
58874;SDS011;44652;49.040;12.126;2023-02-28T06:19:46;17.63;;;8.02;;
58874;SDS011;44652;49.040;12.126;2023-02-28T06:24:41;13.52;;;7.10;;
58874;SDS011;44652;49.040;12.126;2023-02-28T06:27:08;14.25;;;7.75;;
58874;SDS011;44652;49.040;12.126;2023-02-28T06:29:34;13.93;;;7.90;;
58874;SDS011;44652;49.040;12.126;2023-02-28T06:32:01;13.88;;;8.15;;
58874;SDS011;44652;49.040;12.126;2023-02-28T06:34:28;13.52;;;7.53;;
58874;SDS011;44652;49.040;12.126;2023-02-28T06:36:54;13.02;;;7.43;;
58874;SDS011;44652;49.040;12.126;2023-02-28T06:39:21;13.70;;;8.20;;
58874;SDS011;44652;49.040;12.126;2023-02-28T06:41:48;14.18;;;8.15;;
58874;SDS011;44652;49.040;12.126;2023-02-28T06:44:21;14.88;;;8.80;;
58874;SDS011;44652;49.040;12.126;2023-02-28T06:46:48;13.38;;;7.88;;
58874;SDS011;44652;49.040;12.126;2023-02-28T06:49:15;13.18;;;7.63;;
58874;SDS011;44652;49.040;12.126;2023-02-28T06:51:43;13.30;;;8.05;;
58874;SDS011;44652;49.040;12.126;2023-02-28T06:54:12;16.52;;;7.63;;
58874;SDS011;44652;49.040;12.126;2023-02-28T06:56:39;13.95;;;9.07;;
58874;SDS011;44652;49.040;12.126;2023-02-28T06:59:06;13.75;;;7.82;;
58874;SDS011;44652;49.040;12.126;2023-02-28T07:01:32;12.25;;;7.38;;
58874;SDS011;44652;49.040;12.126;2023-02-28T07:03:59;12.40;;;7.72;;
58874;SDS011;44652;49.040;12.126;2023-02-28T07:06:26;15.82;;;8.07;;
58874;SDS011;44652;49.040;12.126;2023-02-28T07:08:53;16.17;;;7.75;;
58874;SDS011;44652;49.040;12.126;2023-02-28T07:11:25;11.85;;;7.30;;
58874;SDS011;44652;49.040;12.126;2023-02-28T07:14:08;15.23;;;7.47;;
58874;SDS011;44652;49.040;12.126;2023-02-28T07:16:36;14.75;;;8.30;;
58874;SDS011;44652;49.040;12.126;2023-02-28T07:19:02;12.43;;;7.20;;
58874;SDS011;44652;49.040;12.126;2023-02-28T07:21:29;13.10;;;7.32;;
58874;SDS011;44652;49.040;12.126;2023-02-28T07:23:56;13.07;;;7.47;;
58874;SDS011;44652;49.040;12.126;2023-02-28T07:26:23;12.23;;;7.28;;
58874;SDS011;44652;49.040;12.126;2023-02-28T07:28:49;12.50;;;7.85;;
58874;SDS011;44652;49.040;12.126;2023-02-28T07:31:17;10.90;;;7.05;;
58874;SDS011;44652;49.040;12.126;2023-02-28T07:33:44;12.90;;;7.43;;
58874;SDS011;44652;49.040;12.126;2023-02-28T07:36:12;12.27;;;7.82;;
58874;SDS011;44652;49.040;12.126;2023-02-28T07:38:42;14.48;;;8.50;;
58874;SDS011;44652;49.040;12.126;2023-02-28T07:41:11;13.25;;;7.75;;
58874;SDS011;44652;49.040;12.126;2023-02-28T07:43:37;15.60;;;8.75;;
58874;SDS011;44652;49.040;12.126;2023-02-28T07:46:04;16.35;;;8.73;;
58874;SDS011;44652;49.040;12.126;2023-02-28T07:48:32;14.77;;;9.10;;
58874;SDS011;44652;49.040;12.126;2023-02-28T07:50:58;14.63;;;8.30;;
58874;SDS011;44652;49.040;12.126;2023-02-28T07:53:25;13.15;;;7.85;;
58874;SDS011;44652;49.040;12.126;2023-02-28T07:55:56;17.63;;;8.57;;
58874;SDS011;44652;49.040;12.126;2023-02-28T07:58:22;14.23;;;8.45;;
58874;SDS011;44652;49.040;12.126;2023-02-28T08:00:50;15.70;;;8.77;;
58874;SDS011;44652;49.040;12.126;2023-02-28T08:03:20;13.13;;;8.20;;
58874;SDS011;44652;49.040;12.126;2023-02-28T08:05:47;14.13;;;8.52;;
58874;SDS011;44652;49.040;12.126;2023-02-28T08:08:14;11.95;;;8.13;;
58874;SDS011;44652;49.040;12.126;2023-02-28T08:10:42;13.93;;;7.97;;
58874;SDS011;44652;49.040;12.126;2023-02-28T08:13:08;17.30;;;8.55;;
58874;SDS011;44652;49.040;12.126;2023-02-28T08:15:35;13.05;;;7.78;;
58874;SDS011;44652;49.040;12.126;2023-02-28T08:18:02;15.40;;;8.50;;
58874;SDS011;44652;49.040;12.126;2023-02-28T08:20:29;17.00;;;8.23;;
58874;SDS011;44652;49.040;12.126;2023-02-28T08:22:56;14.57;;;8.20;;
58874;SDS011;44652;49.040;12.126;2023-02-28T08:25:23;13.60;;;8.35;;
58874;SDS011;44652;49.040;12.126;2023-02-28T08:27:50;14.20;;;8.45;;
58874;SDS011;44652;49.040;12.126;2023-02-28T08:30:17;14.98;;;8.48;;
58874;SDS011;44652;49.040;12.126;2023-02-28T08:32:43;14.35;;;8.40;;
58874;SDS011;44652;49.040;12.126;2023-02-28T08:35:10;14.18;;;7.75;;
58874;SDS011;44652;49.040;12.126;2023-02-28T08:37:36;14.70;;;8.73;;
58874;SDS011;44652;49.040;12.126;2023-02-28T08:40:03;14.48;;;8.55;;
58874;SDS011;44652;49.040;12.126;2023-02-28T08:42:31;13.77;;;8.50;;
58874;SDS011;44652;49.040;12.126;2023-02-28T08:44:58;14.57;;;8.70;;
58874;SDS011;44652;49.040;12.126;2023-02-28T08:47:24;15.63;;;9.50;;
58874;SDS011;44652;49.040;12.126;2023-02-28T08:49:51;16.25;;;9.85;;
58874;SDS011;44652;49.040;12.126;2023-02-28T08:52:17;16.15;;;8.93;;
58874;SDS011;44652;49.040;12.126;2023-02-28T08:54:44;13.02;;;8.35;;
58874;SDS011;44652;49.040;12.126;2023-02-28T08:57:10;16.17;;;8.77;;
58874;SDS011;44652;49.040;12.126;2023-02-28T08:59:37;13.40;;;8.43;;
58874;SDS011;44652;49.040;12.126;2023-02-28T09:02:03;12.82;;;8.45;;
58874;SDS011;44652;49.040;12.126;2023-02-28T09:04:30;13.85;;;7.95;;
58874;SDS011;44652;49.040;12.126;2023-02-28T09:06:57;15.55;;;8.80;;
58874;SDS011;44652;49.040;12.126;2023-02-28T09:09:23;15.10;;;9.00;;
58874;SDS011;44652;49.040;12.126;2023-02-28T09:11:52;14.80;;;9.00;;
58874;SDS011;44652;49.040;12.126;2023-02-28T09:14:21;13.63;;;8.98;;
58874;SDS011;44652;49.040;12.126;2023-02-28T09:16:48;13.90;;;8.75;;
58874;SDS011;44652;49.040;12.126;2023-02-28T09:19:14;14.75;;;8.65;;
58874;SDS011;44652;49.040;12.126;2023-02-28T09:21:41;13.60;;;8.15;;
58874;SDS011;44652;49.040;12.126;2023-02-28T09:24:07;14.27;;;8.73;;
58874;SDS011;44652;49.040;12.126;2023-02-28T09:26:34;13.82;;;8.52;;
58874;SDS011;44652;49.040;12.126;2023-02-28T09:29:12;16.58;;;8.80;;
58874;SDS011;44652;49.040;12.126;2023-02-28T09:31:39;13.10;;;7.95;;
58874;SDS011;44652;49.040;12.126;2023-02-28T09:34:06;15.25;;;8.63;;
58874;SDS011;44652;49.040;12.126;2023-02-28T09:36:33;18.02;;;8.23;;
58874;SDS011;44652;49.040;12.126;2023-02-28T09:39:10;12.50;;;8.00;;
58874;SDS011;44652;49.040;12.126;2023-02-28T09:41:39;13.80;;;8.43;;
58874;SDS011;44652;49.040;12.126;2023-02-28T09:44:15;14.50;;;8.88;;
58874;SDS011;44652;49.040;12.126;2023-02-28T09:46:48;12.95;;;8.38;;
58874;SDS011;44652;49.040;12.126;2023-02-28T09:49:16;13.85;;;8.57;;
58874;SDS011;44652;49.040;12.126;2023-02-28T09:51:46;14.43;;;8.10;;
58874;SDS011;44652;49.040;12.126;2023-02-28T09:54:16;15.13;;;8.93;;
58874;SDS011;44652;49.040;12.126;2023-02-28T09:56:47;18.20;;;9.65;;
58874;SDS011;44652;49.040;12.126;2023-02-28T09:59:23;15.40;;;8.95;;
58874;SDS011;44652;49.040;12.126;2023-02-28T10:01:55;12.00;;;8.05;;
58874;SDS011;44652;49.040;12.126;2023-02-28T10:06:51;14.40;;;9.00;;
58874;SDS011;44652;49.040;12.126;2023-02-28T10:09:21;15.73;;;9.47;;
58874;SDS011;44652;49.040;12.126;2023-02-28T10:11:53;15.52;;;9.23;;
58874;SDS011;44652;49.040;12.126;2023-02-28T10:14:24;14.68;;;9.02;;
58874;SDS011;44652;49.040;12.126;2023-02-28T10:16:53;14.10;;;8.85;;
58874;SDS011;44652;49.040;12.126;2023-02-28T10:22:04;15.05;;;9.00;;
58874;SDS011;44652;49.040;12.126;2023-02-28T10:24:35;14.57;;;8.88;;
58874;SDS011;44652;49.040;12.126;2023-02-28T10:29:46;13.18;;;8.32;;
58874;SDS011;44652;49.040;12.126;2023-02-28T10:32:15;15.98;;;9.30;;
58874;SDS011;44652;49.040;12.126;2023-02-28T10:34:43;14.57;;;9.07;;
58874;SDS011;44652;49.040;12.126;2023-02-28T10:37:10;14.43;;;9.35;;
58874;SDS011;44652;49.040;12.126;2023-02-28T10:39:41;12.90;;;9.07;;
58874;SDS011;44652;49.040;12.126;2023-02-28T10:42:24;16.05;;;9.23;;
58874;SDS011;44652;49.040;12.126;2023-02-28T10:53:58;14.90;;;8.90;;
58874;SDS011;44652;49.040;12.126;2023-02-28T11:01:12;13.88;;;9.65;;
58874;SDS011;44652;49.040;12.126;2023-02-28T11:03:39;14.68;;;9.27;;
58874;SDS011;44652;49.040;12.126;2023-02-28T11:06:16;16.00;;;9.60;;
58874;SDS011;44652;49.040;12.126;2023-02-28T11:08:44;13.65;;;8.48;;
58874;SDS011;44652;49.040;12.126;2023-02-28T11:11:10;13.35;;;9.10;;
58874;SDS011;44652;49.040;12.126;2023-02-28T11:13:37;12.50;;;8.75;;
58874;SDS011;44652;49.040;12.126;2023-02-28T11:16:05;13.20;;;9.27;;
58874;SDS011;44652;49.040;12.126;2023-02-28T11:21:05;13.40;;;8.60;;
58874;SDS011;44652;49.040;12.126;2023-02-28T11:23:33;12.88;;;8.68;;
58874;SDS011;44652;49.040;12.126;2023-02-28T11:26:03;12.52;;;8.50;;
58874;SDS011;44652;49.040;12.126;2023-02-28T11:28:32;14.52;;;9.02;;
58874;SDS011;44652;49.040;12.126;2023-02-28T11:33:51;14.80;;;8.57;;
58874;SDS011;44652;49.040;12.126;2023-02-28T11:38:47;15.23;;;9.43;;
58874;SDS011;44652;49.040;12.126;2023-02-28T11:41:27;12.63;;;8.63;;
58874;SDS011;44652;49.040;12.126;2023-02-28T11:46:29;13.00;;;8.77;;
58874;SDS011;44652;49.040;12.126;2023-02-28T11:54:09;16.10;;;9.13;;
58874;SDS011;44652;49.040;12.126;2023-02-28T11:56:44;12.88;;;8.48;;
58874;SDS011;44652;49.040;12.126;2023-02-28T12:09:59;14.55;;;9.40;;
58874;SDS011;44652;49.040;12.126;2023-02-28T12:22:52;14.18;;;9.10;;
58874;SDS011;44652;49.040;12.126;2023-02-28T12:27:56;12.63;;;9.05;;
58874;SDS011;44652;49.040;12.126;2023-02-28T12:30:30;15.18;;;8.75;;
58874;SDS011;44652;49.040;12.126;2023-02-28T12:33:01;12.55;;;8.18;;
58874;SDS011;44652;49.040;12.126;2023-02-28T12:35:32;13.95;;;8.63;;
58874;SDS011;44652;49.040;12.126;2023-02-28T12:38:10;15.75;;;8.80;;
58874;SDS011;44652;49.040;12.126;2023-02-28T12:40:43;12.23;;;8.40;;
58874;SDS011;44652;49.040;12.126;2023-02-28T12:43:10;13.10;;;8.23;;
58874;SDS011;44652;49.040;12.126;2023-02-28T12:45:49;13.90;;;7.97;;
58874;SDS011;44652;49.040;12.126;2023-02-28T12:48:27;15.20;;;9.13;;
58874;SDS011;44652;49.040;12.126;2023-02-28T12:50:55;13.60;;;8.00;;
58874;SDS011;44652;49.040;12.126;2023-02-28T12:53:24;11.65;;;8.00;;
58874;SDS011;44652;49.040;12.126;2023-02-28T13:03:41;10.88;;;8.13;;
58874;SDS011;44652;49.040;12.126;2023-02-28T13:06:36;11.85;;;7.50;;
58874;SDS011;44652;49.040;12.126;2023-02-28T13:11:32;11.32;;;7.75;;
58874;SDS011;44652;49.040;12.126;2023-02-28T13:14:03;11.50;;;8.48;;
58874;SDS011;44652;49.040;12.126;2023-02-28T13:19:17;14.18;;;8.90;;
58874;SDS011;44652;49.040;12.126;2023-02-28T13:21:45;10.93;;;8.23;;
58874;SDS011;44652;49.040;12.126;2023-02-28T13:24:11;13.40;;;8.32;;
58874;SDS011;44652;49.040;12.126;2023-02-28T13:27:11;13.23;;;9.15;;
58874;SDS011;44652;49.040;12.126;2023-02-28T13:29:38;12.00;;;8.43;;
58874;SDS011;44652;49.040;12.126;2023-02-28T13:39:54;13.63;;;7.95;;
58874;SDS011;44652;49.040;12.126;2023-02-28T13:47:42;12.57;;;8.43;;
58874;SDS011;44652;49.040;12.126;2023-02-28T13:58:15;10.30;;;7.55;;
58874;SDS011;44652;49.040;12.126;2023-02-28T14:05:45;10.57;;;7.68;;
58874;SDS011;44652;49.040;12.126;2023-02-28T14:08:13;11.00;;;7.78;;
58874;SDS011;44652;49.040;12.126;2023-02-28T14:10:50;13.23;;;8.00;;
58874;SDS011;44652;49.040;12.126;2023-02-28T14:16:08;11.95;;;7.75;;
58874;SDS011;44652;49.040;12.126;2023-02-28T14:18:35;11.10;;;8.23;;
58874;SDS011;44652;49.040;12.126;2023-02-28T14:24:02;11.35;;;8.02;;
58874;SDS011;44652;49.040;12.126;2023-02-28T14:31:47;13.95;;;8.90;;
58874;SDS011;44652;49.040;12.126;2023-02-28T14:36:44;15.30;;;9.27;;
58874;SDS011;44652;49.040;12.126;2023-02-28T14:39:19;16.83;;;9.52;;
58874;SDS011;44652;49.040;12.126;2023-02-28T14:41:46;18.92;;;9.10;;
58874;SDS011;44652;49.040;12.126;2023-02-28T14:44:26;13.50;;;8.60;;
58874;SDS011;44652;49.040;12.126;2023-02-28T14:46:53;13.25;;;8.73;;
58874;SDS011;44652;49.040;12.126;2023-02-28T14:51:50;14.38;;;8.95;;
58874;SDS011;44652;49.040;12.126;2023-02-28T14:54:27;14.27;;;8.95;;
58874;SDS011;44652;49.040;12.126;2023-02-28T14:56:54;13.07;;;8.90;;
58874;SDS011;44652;49.040;12.126;2023-02-28T14:59:25;13.63;;;9.20;;
58874;SDS011;44652;49.040;12.126;2023-02-28T15:02:12;14.73;;;9.35;;
58874;SDS011;44652;49.040;12.126;2023-02-28T15:04:39;15.18;;;9.82;;
58874;SDS011;44652;49.040;12.126;2023-02-28T15:07:13;12.88;;;9.40;;
58874;SDS011;44652;49.040;12.126;2023-02-28T15:09:40;12.25;;;9.38;;
58874;SDS011;44652;49.040;12.126;2023-02-28T15:12:07;12.15;;;8.63;;
58874;SDS011;44652;49.040;12.126;2023-02-28T15:14:33;13.43;;;9.43;;
58874;SDS011;44652;49.040;12.126;2023-02-28T15:17:05;15.55;;;9.43;;
58874;SDS011;44652;49.040;12.126;2023-02-28T15:19:34;12.85;;;9.35;;
58874;SDS011;44652;49.040;12.126;2023-02-28T15:22:04;12.90;;;9.55;;
58874;SDS011;44652;49.040;12.126;2023-02-28T15:24:37;14.52;;;9.45;;
58874;SDS011;44652;49.040;12.126;2023-02-28T15:27:07;13.60;;;9.57;;
58874;SDS011;44652;49.040;12.126;2023-02-28T15:30:14;16.77;;;10.23;;
58874;SDS011;44652;49.040;12.126;2023-02-28T15:34:55;14.30;;;9.73;;
58874;SDS011;44652;49.040;12.126;2023-02-28T15:37:39;14.38;;;10.13;;
58874;SDS011;44652;49.040;12.126;2023-02-28T15:40:17;17.23;;;10.10;;
58874;SDS011;44652;49.040;12.126;2023-02-28T15:42:57;16.50;;;10.05;;
58874;SDS011;44652;49.040;12.126;2023-02-28T15:46:06;15.15;;;10.05;;
58874;SDS011;44652;49.040;12.126;2023-02-28T15:50:47;14.85;;;9.98;;
58874;SDS011;44652;49.040;12.126;2023-02-28T15:53:16;15.38;;;10.25;;
58874;SDS011;44652;49.040;12.126;2023-02-28T15:58:10;15.73;;;9.93;;
58874;SDS011;44652;49.040;12.126;2023-02-28T16:00:39;19.42;;;10.23;;
58874;SDS011;44652;49.040;12.126;2023-02-28T16:03:32;15.65;;;10.70;;
58874;SDS011;44652;49.040;12.126;2023-02-28T16:08:56;19.60;;;12.20;;
58874;SDS011;44652;49.040;12.126;2023-02-28T16:11:22;17.23;;;11.00;;
58874;SDS011;44652;49.040;12.126;2023-02-28T16:13:49;16.33;;;10.63;;
58874;SDS011;44652;49.040;12.126;2023-02-28T16:16:17;18.52;;;12.15;;
58874;SDS011;44652;49.040;12.126;2023-02-28T16:18:44;16.50;;;11.30;;
58874;SDS011;44652;49.040;12.126;2023-02-28T16:21:10;18.65;;;12.65;;
58874;SDS011;44652;49.040;12.126;2023-02-28T16:23:37;16.30;;;11.32;;
58874;SDS011;44652;49.040;12.126;2023-02-28T16:26:03;18.95;;;11.07;;
58874;SDS011;44652;49.040;12.126;2023-02-28T16:28:31;17.85;;;11.13;;
58874;SDS011;44652;49.040;12.126;2023-02-28T16:31:02;15.43;;;10.23;;
58874;SDS011;44652;49.040;12.126;2023-02-28T16:33:29;17.80;;;11.05;;
58874;SDS011;44652;49.040;12.126;2023-02-28T16:35:56;17.85;;;11.57;;
58874;SDS011;44652;49.040;12.126;2023-02-28T16:38:23;19.02;;;11.65;;
58874;SDS011;44652;49.040;12.126;2023-02-28T16:40:51;17.38;;;11.50;;
58874;SDS011;44652;49.040;12.126;2023-02-28T16:43:19;20.50;;;12.25;;
58874;SDS011;44652;49.040;12.126;2023-02-28T16:45:47;18.20;;;12.30;;
58874;SDS011;44652;49.040;12.126;2023-02-28T16:48:14;19.00;;;11.70;;
58874;SDS011;44652;49.040;12.126;2023-02-28T16:50:42;21.05;;;12.88;;
58874;SDS011;44652;49.040;12.126;2023-02-28T16:53:10;20.98;;;12.55;;
58874;SDS011;44652;49.040;12.126;2023-02-28T16:55:37;20.67;;;12.68;;
58874;SDS011;44652;49.040;12.126;2023-02-28T16:58:04;17.90;;;12.57;;
58874;SDS011;44652;49.040;12.126;2023-02-28T17:00:30;21.20;;;13.40;;
58874;SDS011;44652;49.040;12.126;2023-02-28T17:02:57;23.13;;;13.20;;
58874;SDS011;44652;49.040;12.126;2023-02-28T17:05:25;20.20;;;13.25;;
58874;SDS011;44652;49.040;12.126;2023-02-28T17:07:53;20.37;;;13.07;;
58874;SDS011;44652;49.040;12.126;2023-02-28T17:12:46;20.65;;;12.73;;
58874;SDS011;44652;49.040;12.126;2023-02-28T17:15:13;22.08;;;14.20;;
58874;SDS011;44652;49.040;12.126;2023-02-28T17:17:40;18.38;;;12.90;;
58874;SDS011;44652;49.040;12.126;2023-02-28T17:20:11;20.17;;;12.65;;
58874;SDS011;44652;49.040;12.126;2023-02-28T17:22:38;22.55;;;14.57;;
58874;SDS011;44652;49.040;12.126;2023-02-28T17:25:05;20.75;;;14.15;;
58874;SDS011;44652;49.040;12.126;2023-02-28T17:27:31;22.67;;;13.35;;
58874;SDS011;44652;49.040;12.126;2023-02-28T17:29:58;23.20;;;12.85;;
58874;SDS011;44652;49.040;12.126;2023-02-28T17:32:24;22.23;;;13.48;;
58874;SDS011;44652;49.040;12.126;2023-02-28T17:34:52;22.35;;;14.48;;
58874;SDS011;44652;49.040;12.126;2023-02-28T17:37:18;21.63;;;12.98;;
58874;SDS011;44652;49.040;12.126;2023-02-28T17:39:45;22.70;;;13.13;;
58874;SDS011;44652;49.040;12.126;2023-02-28T17:42:11;19.85;;;13.20;;
58874;SDS011;44652;49.040;12.126;2023-02-28T17:44:38;19.38;;;13.20;;
58874;SDS011;44652;49.040;12.126;2023-02-28T17:47:04;24.67;;;14.45;;
58874;SDS011;44652;49.040;12.126;2023-02-28T17:49:31;23.80;;;12.93;;
58874;SDS011;44652;49.040;12.126;2023-02-28T17:51:59;20.27;;;13.90;;
58874;SDS011;44652;49.040;12.126;2023-02-28T17:54:25;24.13;;;14.30;;
58874;SDS011;44652;49.040;12.126;2023-02-28T17:56:52;25.52;;;14.35;;
58874;SDS011;44652;49.040;12.126;2023-02-28T17:59:19;22.65;;;13.75;;
58874;SDS011;44652;49.040;12.126;2023-02-28T18:01:45;22.70;;;14.88;;
58874;SDS011;44652;49.040;12.126;2023-02-28T18:04:12;22.63;;;14.13;;
58874;SDS011;44652;49.040;12.126;2023-02-28T18:06:39;20.33;;;12.98;;
58874;SDS011;44652;49.040;12.126;2023-02-28T18:09:16;23.08;;;14.90;;
58874;SDS011;44652;49.040;12.126;2023-02-28T18:11:43;22.25;;;13.98;;
58874;SDS011;44652;49.040;12.126;2023-02-28T18:14:14;22.60;;;14.23;;
58874;SDS011;44652;49.040;12.126;2023-02-28T18:16:41;23.02;;;13.80;;
58874;SDS011;44652;49.040;12.126;2023-02-28T18:19:08;22.75;;;13.93;;
58874;SDS011;44652;49.040;12.126;2023-02-28T18:21:40;22.15;;;13.90;;
58874;SDS011;44652;49.040;12.126;2023-02-28T18:24:07;23.20;;;14.85;;
58874;SDS011;44652;49.040;12.126;2023-02-28T18:26:34;24.30;;;14.05;;
58874;SDS011;44652;49.040;12.126;2023-02-28T18:29:01;23.70;;;14.47;;
58874;SDS011;44652;49.040;12.126;2023-02-28T18:31:28;23.15;;;14.15;;
58874;SDS011;44652;49.040;12.126;2023-02-28T18:33:54;24.80;;;14.60;;
58874;SDS011;44652;49.040;12.126;2023-02-28T18:36:21;26.50;;;15.38;;
58874;SDS011;44652;49.040;12.126;2023-02-28T18:38:48;23.75;;;14.32;;
58874;SDS011;44652;49.040;12.126;2023-02-28T18:41:15;24.10;;;14.65;;
58874;SDS011;44652;49.040;12.126;2023-02-28T18:43:42;26.67;;;15.77;;
58874;SDS011;44652;49.040;12.126;2023-02-28T18:46:10;24.48;;;15.65;;
58874;SDS011;44652;49.040;12.126;2023-02-28T18:48:37;26.50;;;15.50;;
58874;SDS011;44652;49.040;12.126;2023-02-28T18:51:11;27.50;;;15.85;;
58874;SDS011;44652;49.040;12.126;2023-02-28T18:53:38;24.10;;;15.15;;
58874;SDS011;44652;49.040;12.126;2023-02-28T18:56:05;26.55;;;16.33;;
58874;SDS011;44652;49.040;12.126;2023-02-28T18:58:32;27.92;;;15.43;;
58874;SDS011;44652;49.040;12.126;2023-02-28T19:01:00;27.40;;;15.80;;
58874;SDS011;44652;49.040;12.126;2023-02-28T19:03:27;24.23;;;15.55;;
58874;SDS011;44652;49.040;12.126;2023-02-28T19:05:57;25.77;;;16.42;;
58874;SDS011;44652;49.040;12.126;2023-02-28T19:08:24;25.38;;;15.40;;
58874;SDS011;44652;49.040;12.126;2023-02-28T19:10:50;25.85;;;15.80;;
58874;SDS011;44652;49.040;12.126;2023-02-28T19:13:17;23.30;;;14.80;;
58874;SDS011;44652;49.040;12.126;2023-02-28T19:15:46;26.13;;;16.20;;
58874;SDS011;44652;49.040;12.126;2023-02-28T19:18:12;26.10;;;15.93;;
58874;SDS011;44652;49.040;12.126;2023-02-28T19:20:39;27.13;;;16.20;;
58874;SDS011;44652;49.040;12.126;2023-02-28T19:23:06;25.38;;;15.52;;
58874;SDS011;44652;49.040;12.126;2023-02-28T19:25:32;23.83;;;15.73;;
58874;SDS011;44652;49.040;12.126;2023-02-28T19:27:59;24.10;;;15.98;;
58874;SDS011;44652;49.040;12.126;2023-02-28T19:30:25;26.67;;;15.90;;
58874;SDS011;44652;49.040;12.126;2023-02-28T19:32:52;24.98;;;16.58;;
58874;SDS011;44652;49.040;12.126;2023-02-28T19:35:18;28.63;;;17.10;;
58874;SDS011;44652;49.040;12.126;2023-02-28T19:37:45;27.70;;;16.30;;
58874;SDS011;44652;49.040;12.126;2023-02-28T19:40:12;27.92;;;15.95;;
58874;SDS011;44652;49.040;12.126;2023-02-28T19:42:39;28.60;;;15.70;;
58874;SDS011;44652;49.040;12.126;2023-02-28T19:45:05;23.33;;;16.98;;
58874;SDS011;44652;49.040;12.126;2023-02-28T19:47:35;25.50;;;16.75;;
58874;SDS011;44652;49.040;12.126;2023-02-28T19:50:01;25.08;;;15.00;;
58874;SDS011;44652;49.040;12.126;2023-02-28T19:52:28;24.55;;;15.77;;
58874;SDS011;44652;49.040;12.126;2023-02-28T19:54:54;26.15;;;16.15;;
58874;SDS011;44652;49.040;12.126;2023-02-28T19:57:21;26.88;;;16.67;;
58874;SDS011;44652;49.040;12.126;2023-02-28T19:59:47;28.40;;;17.98;;
58874;SDS011;44652;49.040;12.126;2023-02-28T20:02:17;33.58;;;19.40;;
58874;SDS011;44652;49.040;12.126;2023-02-28T20:04:47;28.52;;;16.92;;
58874;SDS011;44652;49.040;12.126;2023-02-28T20:07:14;27.08;;;16.63;;
58874;SDS011;44652;49.040;12.126;2023-02-28T20:09:41;28.27;;;16.77;;
58874;SDS011;44652;49.040;12.126;2023-02-28T20:12:10;27.17;;;16.75;;
58874;SDS011;44652;49.040;12.126;2023-02-28T20:14:49;27.52;;;18.08;;
58874;SDS011;44652;49.040;12.126;2023-02-28T20:17:16;28.40;;;17.00;;
58874;SDS011;44652;49.040;12.126;2023-02-28T20:19:43;29.25;;;18.63;;
58874;SDS011;44652;49.040;12.126;2023-02-28T20:22:10;27.98;;;17.13;;
58874;SDS011;44652;49.040;12.126;2023-02-28T20:24:36;27.38;;;16.90;;
58874;SDS011;44652;49.040;12.126;2023-02-28T20:27:03;27.20;;;16.80;;
58874;SDS011;44652;49.040;12.126;2023-02-28T20:29:30;25.02;;;16.73;;
58874;SDS011;44652;49.040;12.126;2023-02-28T20:31:57;31.33;;;18.10;;
58874;SDS011;44652;49.040;12.126;2023-02-28T20:34:23;28.58;;;17.42;;
58874;SDS011;44652;49.040;12.126;2023-02-28T20:36:50;25.80;;;16.63;;
58874;SDS011;44652;49.040;12.126;2023-02-28T20:39:17;27.00;;;16.88;;
58874;SDS011;44652;49.040;12.126;2023-02-28T20:41:44;26.30;;;16.90;;
58874;SDS011;44652;49.040;12.126;2023-02-28T20:44:11;28.63;;;17.45;;
58874;SDS011;44652;49.040;12.126;2023-02-28T20:46:38;30.57;;;20.00;;
58874;SDS011;44652;49.040;12.126;2023-02-28T20:49:06;25.40;;;16.95;;
58874;SDS011;44652;49.040;12.126;2023-02-28T20:51:33;24.80;;;15.95;;
58874;SDS011;44652;49.040;12.126;2023-02-28T20:54:02;27.08;;;16.60;;
58874;SDS011;44652;49.040;12.126;2023-02-28T20:56:30;32.65;;;19.50;;
58874;SDS011;44652;49.040;12.126;2023-02-28T20:58:57;59.38;;;39.92;;
58874;SDS011;44652;49.040;12.126;2023-02-28T21:01:24;70.45;;;47.75;;
58874;SDS011;44652;49.040;12.126;2023-02-28T21:03:53;60.30;;;41.53;;
58874;SDS011;44652;49.040;12.126;2023-02-28T21:06:20;45.25;;;30.13;;
58874;SDS011;44652;49.040;12.126;2023-02-28T21:08:47;41.97;;;27.42;;
58874;SDS011;44652;49.040;12.126;2023-02-28T21:11:20;38.97;;;24.33;;
58874;SDS011;44652;49.040;12.126;2023-02-28T21:13:48;34.28;;;21.05;;
58874;SDS011;44652;49.040;12.126;2023-02-28T21:18:43;25.80;;;16.10;;
58874;SDS011;44652;49.040;12.126;2023-02-28T21:21:17;27.40;;;17.10;;
58874;SDS011;44652;49.040;12.126;2023-02-28T21:23:44;28.38;;;16.38;;
58874;SDS011;44652;49.040;12.126;2023-02-28T21:26:13;26.80;;;16.63;;
58874;SDS011;44652;49.040;12.126;2023-02-28T21:28:39;29.10;;;17.00;;
58874;SDS011;44652;49.040;12.126;2023-02-28T21:31:10;24.63;;;16.15;;
58874;SDS011;44652;49.040;12.126;2023-02-28T21:33:37;26.90;;;16.58;;
58874;SDS011;44652;49.040;12.126;2023-02-28T21:38:34;30.35;;;19.10;;
58874;SDS011;44652;49.040;12.126;2023-02-28T21:41:06;29.02;;;18.52;;
58874;SDS011;44652;49.040;12.126;2023-02-28T21:43:32;26.25;;;16.13;;
58874;SDS011;44652;49.040;12.126;2023-02-28T21:46:04;24.38;;;15.55;;
58874;SDS011;44652;49.040;12.126;2023-02-28T21:48:31;25.77;;;15.68;;
58874;SDS011;44652;49.040;12.126;2023-02-28T21:50:58;24.33;;;15.30;;
58874;SDS011;44652;49.040;12.126;2023-02-28T21:53:27;23.75;;;15.45;;
58874;SDS011;44652;49.040;12.126;2023-02-28T21:55:53;26.70;;;17.65;;
58874;SDS011;44652;49.040;12.126;2023-02-28T21:58:20;26.77;;;16.38;;
58874;SDS011;44652;49.040;12.126;2023-02-28T22:00:46;28.15;;;17.50;;
